Time;durP1;ratioP1;P1;durP2;ratioP2;P2;SDS_P1;SDS_P2;PMS_P1;PMS_P2;Temp;Humidity;BMP_temperature;BMP_pressure;BME280_temperature;BME280_humidity;BME280_pressure;Samples;Min_cycle;Max_cycle;Signal;HPM_P1;HPM_P2
2021/04/25 00:00:13;;;;;;;15.63;6.80;;;6.00;61.30;4.80;102676.00;;;;5058872;28;20041;-69
2021/04/25 00:02:39;;;;;;;15.40;6.97;;;6.10;61.50;4.80;102677.00;;;;5053317;28;20324;-69
2021/04/25 00:05:07;;;;;;;21.23;8.45;;;6.00;61.70;4.80;102669.00;;;;5057716;28;20051;-70
2021/04/25 00:07:33;;;;;;;14.02;6.55;;;6.00;62.50;4.80;102675.00;;;;5031839;28;20102;-70
2021/04/25 00:09:59;;;;;;;15.23;7.57;;;6.00;62.40;4.70;102668.00;;;;5058482;28;20044;-70
2021/04/25 00:12:24;;;;;;;15.40;7.00;;;5.90;62.70;4.70;102670.00;;;;5072771;28;20032;-70
2021/04/25 00:14:50;;;;;;;16.23;6.78;;;5.90;63.00;4.70;102665.00;;;;5053823;28;20135;-70
2021/04/25 00:17:17;;;;;;;14.70;7.32;;;5.90;64.00;4.60;102665.00;;;;5060830;28;20048;-70
2021/04/25 00:19:42;;;;;;;11.60;6.22;;;6.70;64.40;4.60;102667.00;;;;5056103;28;20058;-69
2021/04/25 00:22:08;;;;;;;14.63;7.53;;;5.90;63.20;4.60;102670.00;;;;5053332;28;20709;-69
2021/04/25 00:24:34;;;;;;;13.80;6.72;;;5.80;65.20;4.50;102654.00;;;;5057626;28;20299;-70
2021/04/25 00:27:01;;;;;;;14.43;7.18;;;5.70;64.20;4.50;102666.00;;;;5057895;28;20407;-69
2021/04/25 00:29:27;;;;;;;14.40;7.28;;;5.70;63.50;4.50;102663.00;;;;5060640;28;20513;-70
2021/04/25 00:31:53;;;;;;;18.40;7.07;;;5.70;64.20;4.50;102667.00;;;;5052244;28;20163;-69
2021/04/25 00:34:18;;;;;;;14.25;6.85;;;5.70;63.40;4.40;102659.00;;;;5057709;28;20655;-70
2021/04/25 00:36:46;;;;;;;16.30;6.85;;;5.70;63.10;4.40;102655.00;;;;5057666;28;20502;-70
2021/04/25 00:39:12;;;;;;;;;;;5.70;64.30;4.30;102662.00;;;;5022845;28;20269;-70
2021/04/25 00:41:38;;;;;;;13.20;6.57;;;5.60;67.50;4.30;102658.00;;;;5057089;28;19925;-70
2021/04/25 00:44:07;;;;;;;15.65;7.07;;;5.60;64.20;4.30;102653.00;;;;5050805;28;20114;-70
2021/04/25 00:46:33;;;;;;;12.38;6.60;;;5.50;63.40;4.30;102657.00;;;;5056814;28;20433;-69
2021/04/25 00:48:59;;;;;;;17.95;8.13;;;5.50;64.10;4.20;102662.00;;;;5036699;28;20155;-70
2021/04/25 00:51:25;;;;;;;23.27;7.97;;;5.00;64.10;4.20;102653.00;;;;5057658;28;20536;-70
2021/04/25 00:53:52;;;;;;;16.55;7.75;;;5.50;65.10;4.20;102664.00;;;;5051458;28;20543;-69
2021/04/25 00:56:20;;;;;;;17.00;7.18;;;5.50;65.10;4.20;102659.00;;;;5065292;28;20036;-70
2021/04/25 00:58:46;;;;;;;14.18;7.53;;;5.50;67.50;4.20;102659.00;;;;5054147;28;20662;-70
2021/04/25 01:01:12;;;;;;;15.20;7.13;;;5.40;65.90;4.30;102668.00;;;;5034703;28;20094;-70
2021/04/25 01:03:38;;;;;;;16.55;7.55;;;5.40;64.40;4.30;102667.00;;;;5053051;28;20570;-69
2021/04/25 01:06:04;;;;;;;15.20;7.53;;;5.50;64.10;4.30;102676.00;;;;5040490;28;20052;-69
2021/04/25 01:08:30;;;;;;;12.70;7.00;;;5.50;65.00;4.40;102668.00;;;;5052589;28;20091;-69
2021/04/25 01:10:56;;;;;;;16.85;7.28;;;5.60;64.40;4.50;102669.00;;;;5055784;28;20056;-69
2021/04/25 01:13:22;;;;;;;14.55;7.93;;;5.50;64.80;4.50;102654.00;;;;5047461;28;20115;-70
2021/04/25 01:15:48;;;;;;;15.90;7.13;;;5.70;67.40;4.60;102657.00;;;;5053689;28;20139;-69
2021/04/25 01:18:13;;;;;;;14.73;7.03;;;6.00;65.50;4.70;102659.00;;;;5053177;28;20055;-70
2021/04/25 01:20:39;;;;;;;17.20;7.20;;;5.80;65.10;4.70;102668.00;;;;5051198;28;20180;-70
2021/04/25 01:23:06;;;;;;;11.40;6.85;;;6.10;64.80;4.80;102666.00;;;;5051066;28;20044;-70
2021/04/25 01:25:32;;;;;;;14.95;7.10;;;5.90;65.30;4.80;102665.00;;;;5044614;28;20049;-69
2021/04/25 01:27:58;;;;;;;12.13;6.88;;;6.30;65.30;4.80;102664.00;;;;5051852;28;20094;-70
2021/04/25 01:30:28;;;;;;;14.07;6.72;;;6.00;65.20;4.80;102659.00;;;;5053423;28;20032;-70
2021/04/25 01:32:55;;;;;;;18.17;6.50;;;6.00;64.40;4.90;102671.00;;;;5035273;28;20491;-70
2021/04/25 01:35:25;;;;;;;13.30;6.35;;;6.00;64.40;4.90;102662.00;;;;5049522;28;20044;-69
2021/04/25 01:37:57;;;;;;;13.27;6.07;;;6.20;64.60;4.90;102658.00;;;;5050457;28;20555;-70
2021/04/25 01:40:27;;;;;;;13.25;5.90;;;6.10;64.60;4.90;102657.00;;;;5066995;28;20443;-69
2021/04/25 01:42:59;;;;;;;13.88;6.75;;;6.10;64.70;4.90;102662.00;;;;5041988;28;20032;-69
2021/04/25 01:45:27;;;;;;;14.07;5.97;;;6.10;64.70;4.90;102646.00;;;;5052095;28;20037;-70
2021/04/25 01:47:57;;;;;;;11.52;5.68;;;6.10;66.00;4.90;102646.00;;;;5046627;28;20045;-70
2021/04/25 01:50:24;;;;;;;12.60;6.35;;;6.10;64.80;4.90;102652.00;;;;5046887;28;20055;-70
2021/04/25 01:52:53;;;;;;;9.85;5.72;;;6.00;64.10;4.90;102642.00;;;;5054529;28;20721;-69
2021/04/25 01:55:20;;;;;;;10.60;5.55;;;6.00;63.40;4.80;102649.00;;;;5041035;28;20483;-70
2021/04/25 01:57:46;;;;;;;11.45;6.03;;;6.00;64.10;4.80;102647.00;;;;5083940;28;20072;-69
2021/04/25 02:00:19;;;;;;;13.02;6.20;;;6.60;66.10;4.80;102650.00;;;;5025612;28;20060;-70
2021/04/25 02:02:52;;;;;;;11.27;6.10;;;6.00;64.50;4.70;102652.00;;;;5037960;28;20701;-71
2021/04/25 02:05:18;;;;;;;12.18;6.40;;;6.00;64.30;4.70;102650.00;;;;5047977;28;20052;-70
2021/04/25 02:07:43;;;;;;;11.40;6.47;;;5.90;64.50;4.60;102645.00;;;;5045224;28;20049;-71
2021/04/25 02:10:10;;;;;;;14.05;7.07;;;5.90;64.80;4.50;102647.00;;;;5042182;28;20415;-68
2021/04/25 02:12:36;;;;;;;13.95;6.57;;;5.70;64.30;4.50;102645.00;;;;5047550;28;20041;-68
2021/04/25 02:15:06;;;;;;;12.25;5.72;;;5.70;65.10;4.40;102653.00;;;;5060926;28;20125;-68
2021/04/25 02:17:32;;;;;;;15.55;6.25;;;5.70;64.80;4.30;102648.00;;;;5058996;28;20128;-69
2021/04/25 02:19:58;;;;;;;14.00;6.32;;;5.50;64.40;4.30;102647.00;;;;5052870;28;20645;-69
2021/04/25 02:22:25;;;;;;;12.80;6.55;;;5.50;65.30;4.20;102658.00;;;;5050019;28;20047;-69
2021/04/25 02:24:51;;;;;;;15.18;6.32;;;5.40;65.80;4.10;102643.00;;;;5025963;28;20515;-69
2021/04/25 02:27:17;;;;;;;12.10;5.95;;;5.40;65.80;4.00;102653.00;;;;5020677;28;20045;-70
2021/04/25 02:29:43;;;;;;;15.40;6.53;;;5.30;65.90;4.00;102651.00;;;;5049729;28;20536;-69
2021/04/25 02:32:09;;;;;;;13.20;6.05;;;5.30;66.30;3.90;102645.00;;;;5054144;28;20896;-69
2021/04/25 02:34:35;;;;;;;10.77;5.63;;;5.20;67.10;3.90;102648.00;;;;5028960;28;20040;-70
2021/04/25 02:37:01;;;;;;;15.18;5.60;;;5.20;66.80;3.90;102652.00;;;;5048380;28;20049;-70
2021/04/25 02:39:27;;;;;;;15.25;5.75;;;5.30;66.90;3.90;102658.00;;;;5051850;28;20573;-69
2021/04/25 02:41:53;;;;;;;11.90;6.25;;;5.60;66.70;3.90;102648.00;;;;5050775;28;20044;-69
2021/04/25 02:44:20;;;;;;;13.85;6.00;;;5.10;67.00;3.80;102653.00;;;;5060046;28;20045;-69
2021/04/25 02:46:46;;;;;;;12.57;6.10;;;5.10;67.30;3.80;102643.00;;;;5053377;28;20040;-69
2021/04/25 02:49:12;;;;;;;15.95;6.07;;;5.10;66.80;3.90;102645.00;;;;5055659;28;20036;-69
2021/04/25 02:51:38;;;;;;;13.90;5.85;;;5.10;66.60;3.90;102649.00;;;;5056244;28;20086;-68
2021/04/25 02:54:04;;;;;;;14.18;5.78;;;5.10;67.50;3.90;102652.00;;;;5060790;28;20036;-69
2021/04/25 02:56:30;;;;;;;13.63;5.68;;;5.20;66.50;4.00;102652.00;;;;5061909;28;20033;-69
2021/04/25 02:58:56;;;;;;;13.45;4.78;;;5.20;67.20;4.00;102648.00;;;;5039119;28;20033;-69
2021/04/25 03:01:22;;;;;;;11.57;5.32;;;5.20;67.40;4.00;102645.00;;;;5055442;28;20403;-69
2021/04/25 03:03:48;;;;;;;12.83;4.83;;;5.20;67.30;4.00;102639.00;;;;5060910;28;20052;-69
2021/04/25 03:06:14;;;;;;;13.98;5.03;;;5.80;68.20;4.00;102644.00;;;;5059332;28;20051;-69
2021/04/25 03:08:40;;;;;;;14.05;5.07;;;5.20;67.10;4.00;102638.00;;;;5054749;28;20568;-70
2021/04/25 03:11:06;;;;;;;11.60;5.00;;;5.20;67.60;4.00;102645.00;;;;5061559;28;20036;-70
2021/04/25 03:13:32;;;;;;;12.77;5.00;;;5.80;66.90;4.10;102640.00;;;;5046261;28;20037;-70
2021/04/25 03:15:58;;;;;;;11.88;4.93;;;5.30;66.60;4.10;102638.00;;;;5058308;28;20032;-70
2021/04/25 03:18:24;;;;;;;10.63;4.25;;;5.40;67.40;4.10;102627.00;;;;5057348;28;20040;-70
2021/04/25 03:20:50;;;;;;;14.57;4.97;;;5.30;66.50;4.20;102623.00;;;;5052119;28;20047;-70
2021/04/25 03:23:16;;;;;;;11.60;4.07;;;5.40;66.40;4.20;102634.00;;;;5057972;28;20033;-70
2021/04/25 03:25:42;;;;;;;14.05;4.75;;;5.30;67.60;4.20;102634.00;;;;5061273;28;20044;-70
2021/04/25 03:28:07;;;;;;;13.73;4.68;;;5.40;67.70;4.20;102635.00;;;;5063501;28;20040;-70
2021/04/25 03:30:33;;;;;;;8.68;3.85;;;5.40;66.20;4.20;102634.00;;;;5063694;28;20110;-70
2021/04/25 03:32:59;;;;;;;9.98;4.30;;;5.40;66.20;4.20;102641.00;;;;5059528;28;20625;-70
2021/04/25 03:35:25;;;;;;;10.10;4.28;;;5.40;66.00;4.20;102645.00;;;;5036351;28;20041;-70
2021/04/25 03:37:51;;;;;;;10.88;4.53;;;5.40;66.40;4.20;102646.00;;;;5051761;28;20514;-69
2021/04/25 03:40:19;;;;;;;9.52;4.10;;;5.40;66.40;4.20;102644.00;;;;5055441;28;20037;-69
2021/04/25 03:42:47;;;;;;;8.75;4.40;;;5.40;65.70;4.20;102647.00;;;;5056091;28;20033;-69
2021/04/25 03:45:14;;;;;;;8.40;3.97;;;5.40;65.60;4.20;102644.00;;;;5070871;28;20171;-70
2021/04/25 03:47:52;;;;;;;10.50;4.30;;;5.40;65.60;4.10;102640.00;;;;5061730;28;20041;-69
2021/04/25 03:50:19;;;;;;;;;;;5.40;66.40;4.10;102647.00;;;;5055889;28;20046;-69
2021/04/25 03:52:46;;;;;;;10.23;3.92;;;5.40;65.80;4.10;102651.00;;;;5056198;28;19932;-69
2021/04/25 03:55:15;;;;;;;8.90;4.15;;;5.00;65.10;4.10;102649.00;;;;5057545;28;20045;-69
2021/04/25 03:57:41;;;;;;;9.10;3.50;;;5.40;64.10;4.10;102652.00;;;;5080552;28;20044;-69
2021/04/25 04:00:11;;;;;;;9.93;3.58;;;5.70;65.30;4.20;102650.00;;;;5057741;28;20040;-69
2021/04/25 04:02:37;;;;;;;12.60;4.18;;;5.40;65.30;4.10;102657.00;;;;5059393;28;20068;-68
2021/04/25 04:05:04;;;;;;;11.60;4.13;;;5.30;66.00;4.10;102648.00;;;;5061116;28;20060;-68
2021/04/25 04:07:30;;;;;;;13.93;4.25;;;5.30;65.00;4.10;102653.00;;;;5055003;28;20159;-69
2021/04/25 04:09:56;;;;;;;12.38;3.67;;;5.30;65.10;4.10;102656.00;;;;5028168;28;20049;-69
2021/04/25 04:12:22;;;;;;;11.85;4.25;;;5.30;65.70;4.10;102655.00;;;;5056843;28;20040;-69
2021/04/25 04:14:48;;;;;;;8.23;3.72;;;6.00;65.50;4.10;102651.00;;;;5054862;28;20044;-69
2021/04/25 04:17:14;;;;;;;8.15;3.38;;;5.30;65.00;4.10;102643.00;;;;5065135;28;20048;-69
2021/04/25 04:19:40;;;;;;;12.77;3.75;;;5.30;64.60;4.10;102652.00;;;;5050880;28;20047;-69
2021/04/25 04:22:06;;;;;;;8.52;3.75;;;5.30;65.30;4.10;102657.00;;;;5057262;28;20510;-69
2021/04/25 04:24:32;;;;;;;10.57;3.70;;;5.30;64.80;4.10;102651.00;;;;5052647;28;20048;-69
2021/04/25 04:26:58;;;;;;;9.60;3.42;;;5.70;65.30;4.10;102653.00;;;;5055714;28;20071;-69
2021/04/25 04:29:24;;;;;;;10.57;3.40;;;5.30;65.00;4.20;102654.00;;;;5058449;28;20427;-69
2021/04/25 04:31:50;;;;;;;9.43;3.78;;;5.40;64.60;4.20;102641.00;;;;5061560;28;20060;-69
2021/04/25 04:34:16;;;;;;;8.43;3.55;;;5.40;64.80;4.20;102642.00;;;;5061315;28;20048;-69
2021/04/25 04:36:43;;;;;;;7.88;3.35;;;5.40;63.60;4.30;102646.00;;;;5058766;28;20576;-69
2021/04/25 04:39:09;;;;;;;7.78;3.47;;;5.40;64.50;4.30;102641.00;;;;5057934;28;20044;-69
2021/04/25 04:41:34;;;;;;;8.98;3.40;;;5.50;64.30;4.30;102648.00;;;;5060127;28;20060;-69
2021/04/25 04:44:00;;;;;;;7.88;3.45;;;6.10;64.60;4.40;102641.00;;;;5062749;28;20106;-69
2021/04/25 04:46:27;;;;;;;10.23;3.38;;;5.50;63.70;4.40;102638.00;;;;5062482;28;20113;-69
2021/04/25 04:48:53;;;;;;;11.48;4.03;;;5.50;64.10;4.50;102647.00;;;;5041712;28;20133;-69
2021/04/25 04:51:19;;;;;;;9.10;3.88;;;7.30;65.20;4.50;102640.00;;;;5061487;28;20063;-69
2021/04/25 04:53:45;;;;;;;7.72;3.47;;;5.60;64.00;4.50;102649.00;;;;5058693;28;20063;-68
2021/04/25 04:56:11;;;;;;;9.82;3.47;;;5.70;64.00;4.60;102650.00;;;;5058692;28;20040;-69
2021/04/25 04:58:37;;;;;;;8.52;3.10;;;5.70;63.90;4.60;102646.00;;;;5047757;28;20802;-68
2021/04/25 05:01:03;;;;;;;6.72;3.42;;;5.70;63.00;4.60;102650.00;;;;5054721;28;20060;-68
2021/04/25 05:03:29;;;;;;;14.95;3.85;;;5.70;64.00;4.70;102654.00;;;;5057396;28;20106;-69
2021/04/25 05:05:55;;;;;;;7.90;3.03;;;5.80;64.00;4.70;102648.00;;;;5051929;28;20427;-69
2021/04/25 05:08:21;;;;;;;8.70;3.45;;;8.70;65.60;4.70;102652.00;;;;5055785;28;20153;-68
2021/04/25 05:10:47;;;;;;;10.75;3.63;;;5.80;64.00;4.70;102651.00;;;;5056615;28;20130;-68
2021/04/25 05:13:13;;;;;;;7.90;3.47;;;5.90;64.00;4.70;102650.00;;;;5058957;28;20124;-68
2021/04/25 05:15:41;;;;;;;10.50;3.17;;;5.80;63.90;4.70;102651.00;;;;5072563;28;20628;-69
2021/04/25 05:18:07;;;;;;;;;;;6.50;64.40;4.70;102655.00;;;;5055597;28;20054;-68
2021/04/25 05:20:33;;;;;;;11.63;3.80;;;5.90;65.10;4.80;102664.00;;;;5071104;28;19953;-69
2021/04/25 05:23:00;;;;;;;11.75;3.15;;;5.90;63.10;4.70;102660.00;;;;5052419;28;20044;-68
2021/04/25 05:25:27;;;;;;;8.17;3.57;;;5.90;63.50;4.80;102652.00;;;;5054831;28;20059;-69
2021/04/25 05:27:54;;;;;;;5.88;2.83;;;5.90;63.00;4.80;102652.00;;;;5056724;28;20037;-69
2021/04/25 05:30:20;;;;;;;9.88;3.50;;;8.80;65.30;4.80;102658.00;;;;5053270;28;20033;-68
2021/04/25 05:32:47;;;;;;;6.70;2.90;;;6.00;64.10;4.90;102668.00;;;;5058770;28;20320;-68
2021/04/25 05:35:13;;;;;;;9.77;3.33;;;6.00;63.80;4.90;102661.00;;;;5055697;28;20040;-70
2021/04/25 05:37:40;;;;;;;7.85;3.15;;;6.10;63.60;5.00;102658.00;;;;5048243;28;20044;-69
2021/04/25 05:40:09;;;;;;;7.77;3.50;;;6.50;64.20;5.00;102657.00;;;;5060663;28;20049;-70
2021/04/25 05:42:35;;;;;;;9.00;2.80;;;6.20;63.90;5.10;102662.00;;;;5054577;28;20045;-70
2021/04/25 05:45:01;;;;;;;9.98;2.90;;;6.20;63.20;5.20;102668.00;;;;5058699;28;20071;-70
2021/04/25 05:47:27;;;;;;;11.85;2.80;;;6.30;63.20;5.10;102676.00;;;;5034943;28;20096;-69
2021/04/25 05:49:53;;;;;;;14.15;3.38;;;6.30;63.20;5.10;102678.00;;;;5054589;28;20562;-69
2021/04/25 05:52:20;;;;;;;11.05;2.72;;;6.20;63.00;5.10;102684.00;;;;5051539;28;20452;-69
2021/04/25 05:54:46;;;;;;;7.85;2.75;;;6.20;62.10;5.20;102689.00;;;;5061043;28;20070;-69
2021/04/25 05:57:12;;;;;;;7.65;2.65;;;6.30;62.30;5.20;102694.00;;;;5051792;28;20029;-68
2021/04/25 05:59:39;;;;;;;8.02;2.97;;;6.30;62.00;5.20;102685.00;;;;5052443;28;21012;-69
2021/04/25 06:02:06;;;;;;;8.75;2.83;;;6.30;62.00;5.20;102693.00;;;;5052441;28;20056;-69
2021/04/25 06:04:32;;;;;;;;;;;6.30;62.80;5.10;102688.00;;;;5067534;28;20484;-70
2021/04/25 06:06:59;;;;;;;7.03;2.78;;;6.30;63.10;5.20;102689.00;;;;5053114;28;19939;-69
2021/04/25 06:09:25;;;;;;;11.15;3.65;;;6.30;61.70;5.30;102692.00;;;;5070146;28;20671;-69
2021/04/25 06:11:52;;;;;;;8.95;3.00;;;6.40;62.00;5.30;102691.00;;;;5049500;28;20044;-70
2021/04/25 06:14:19;;;;;;;;;;;6.40;62.70;5.30;102686.00;;;;5052606;28;20044;-68
2021/04/25 06:16:45;;;;;;;10.57;2.80;;;6.40;62.80;5.40;102692.00;;;;5055446;28;19920;-69
2021/04/25 06:19:11;;;;;;;10.07;2.75;;;6.40;62.40;5.40;102694.00;;;;5057996;28;20452;-69
2021/04/25 06:21:37;;;;;;;9.18;2.70;;;6.50;62.40;5.50;102691.00;;;;5055578;28;20447;-70
2021/04/25 06:24:04;;;;;;;7.35;2.70;;;6.50;62.60;5.50;102697.00;;;;5059088;28;20044;-70
2021/04/25 06:26:30;;;;;;;6.85;2.63;;;6.60;61.40;5.60;102697.00;;;;5042864;28;20048;-69
2021/04/25 06:28:57;;;;;;;8.50;2.85;;;6.60;62.40;5.60;102692.00;;;;5056515;28;20038;-69
2021/04/25 06:31:22;;;;;;;9.32;2.72;;;6.60;62.10;5.50;102702.00;;;;5057760;28;20140;-69
2021/04/25 06:33:49;;;;;;;9.65;3.40;;;6.60;62.20;5.60;102713.00;;;;5053231;28;20119;-69
2021/04/25 06:36:14;;;;;;;12.05;2.92;;;6.60;62.20;5.70;102702.00;;;;5058743;28;20044;-69
2021/04/25 06:38:40;;;;;;;8.73;2.50;;;6.70;62.30;5.60;102703.00;;;;5062145;28;20048;-70
2021/04/25 06:41:06;;;;;;;7.00;2.75;;;6.70;62.40;5.70;102709.00;;;;5061168;28;20585;-69
2021/04/25 06:43:33;;;;;;;13.27;2.70;;;6.70;62.30;5.60;102717.00;;;;5026317;28;20067;-69
2021/04/25 06:46:00;;;;;;;7.50;2.35;;;6.70;62.00;5.70;102721.00;;;;5054355;28;20040;-70
2021/04/25 06:48:26;;;;;;;11.05;2.80;;;6.70;61.40;5.70;102716.00;;;;5055855;28;20086;-69
2021/04/25 06:50:52;;;;;;;13.85;3.05;;;6.70;62.10;5.80;102719.00;;;;5060476;28;20049;-69
2021/04/25 06:53:18;;;;;;;5.38;2.40;;;6.80;62.10;5.80;102716.00;;;;5059459;28;20552;-69
2021/04/25 06:55:44;;;;;;;9.18;2.47;;;6.90;61.80;5.90;102717.00;;;;5041841;28;20131;-69
2021/04/25 06:58:10;;;;;;;9.20;3.00;;;6.90;60.70;5.90;102731.00;;;;5058444;28;20157;-69
2021/04/25 07:00:36;;;;;;;4.53;1.80;;;6.90;61.90;5.90;102727.00;;;;5048882;28;20680;-69
2021/04/25 07:03:04;;;;;;;11.75;2.40;;;6.90;60.90;5.80;102732.00;;;;5058327;28;20515;-69
2021/04/25 07:05:30;;;;;;;6.20;2.28;;;6.90;60.90;5.80;102740.00;;;;5048088;28;20037;-69
2021/04/25 07:07:59;;;;;;;6.40;2.25;;;6.90;60.00;5.90;102731.00;;;;5041554;28;20064;-69
2021/04/25 07:10:25;;;;;;;8.00;2.63;;;6.90;61.20;5.90;102743.00;;;;5055803;28;20500;-69
2021/04/25 07:12:52;;;;;;;9.40;2.27;;;7.00;61.10;6.00;102739.00;;;;5020175;28;20051;-69
2021/04/25 07:15:18;;;;;;;7.28;2.60;;;8.20;61.70;6.10;102732.00;;;;5051941;28;20052;-69
2021/04/25 07:17:44;;;;;;;11.13;2.55;;;7.20;60.00;6.20;102729.00;;;;5052398;28;20036;-70
2021/04/25 07:20:12;;;;;;;7.18;2.45;;;7.20;61.00;6.30;102741.00;;;;5071938;28;20637;-70
2021/04/25 07:22:38;;;;;;;7.20;2.80;;;7.30;60.70;6.40;102739.00;;;;5071387;28;20047;-69
2021/04/25 07:25:07;;;;;;;5.88;2.33;;;7.40;59.50;6.40;102730.00;;;;5054103;28;20055;-70
2021/04/25 07:27:33;;;;;;;8.10;2.72;;;7.40;59.40;6.40;102741.00;;;;5058131;28;20112;-70
2021/04/25 07:29:59;;;;;;;7.07;2.40;;;7.40;59.60;6.50;102739.00;;;;5033523;28;20617;-68
2021/04/25 07:32:26;;;;;;;8.60;2.50;;;7.50;60.40;6.50;102733.00;;;;5053748;28;20574;-69
2021/04/25 07:34:52;;;;;;;8.27;2.53;;;7.50;59.10;6.50;102730.00;;;;5058568;28;20041;-69
2021/04/25 07:37:18;;;;;;;8.75;2.60;;;7.50;60.10;6.50;102731.00;;;;5053698;28;20052;-69
2021/04/25 07:39:44;;;;;;;10.23;2.33;;;7.50;60.20;6.50;102731.00;;;;5053371;28;20090;-69
2021/04/25 07:42:11;;;;;;;7.65;2.08;;;7.60;59.50;6.70;102737.00;;;;5053428;28;20578;-69
2021/04/25 07:44:41;;;;;;;;;;;7.70;60.50;6.70;102724.00;;;;5052498;28;20162;-70
2021/04/25 07:47:07;;;;;;;9.20;2.80;;;7.70;60.00;6.80;102729.00;;;;5057362;28;20375;-70
2021/04/25 07:49:34;;;;;;;13.73;2.73;;;7.80;60.10;6.80;102734.00;;;;5037441;28;20827;-69
2021/04/25 07:52:00;;;;;;;16.80;2.80;;;7.80;60.00;6.90;102741.00;;;;5056539;28;20387;-70
2021/04/25 07:54:27;;;;;;;9.10;2.70;;;7.90;58.20;6.90;102743.00;;;;5040203;28;20148;-70
2021/04/25 07:56:54;;;;;;;6.63;2.87;;;7.90;59.50;6.90;102739.00;;;;5059459;28;20486;-70
2021/04/25 07:59:21;;;;;;;11.63;3.08;;;7.90;58.70;6.90;102736.00;;;;5049992;28;20746;-70
2021/04/25 08:01:47;;;;;;;9.25;2.83;;;8.10;59.50;7.00;102737.00;;;;5056949;28;20517;-69
2021/04/25 08:04:13;;;;;;;8.63;2.63;;;8.50;59.80;7.10;102740.00;;;;5054003;28;20055;-69
2021/04/25 08:06:39;;;;;;;7.07;2.20;;;8.20;57.80;7.30;102742.00;;;;5057017;28;20699;-69
2021/04/25 08:09:05;;;;;;;7.57;2.67;;;8.20;58.70;7.20;102744.00;;;;5055425;28;20197;-70
2021/04/25 08:11:31;;;;;;;10.55;2.88;;;8.20;58.80;7.20;102751.00;;;;5054670;28;20044;-68
2021/04/25 08:13:57;;;;;;;5.15;2.25;;;8.70;59.20;7.10;102754.00;;;;5054071;28;20052;-69
2021/04/25 08:16:23;;;;;;;6.15;2.20;;;8.10;58.00;7.10;102749.00;;;;5060148;28;20041;-70
2021/04/25 08:18:48;;;;;;;6.68;2.15;;;8.10;58.30;7.10;102738.00;;;;5058972;28;20040;-69
2021/04/25 08:21:14;;;;;;;6.90;2.30;;;8.10;58.10;7.20;102743.00;;;;5051630;28;20120;-70
2021/04/25 08:23:41;;;;;;;4.65;2.00;;;8.10;57.60;7.20;102744.00;;;;5060513;28;20898;-69
2021/04/25 08:26:07;;;;;;;9.65;2.50;;;8.20;56.40;7.20;102734.00;;;;5054324;28;20653;-69
2021/04/25 08:28:34;;;;;;;5.00;2.05;;;8.20;58.30;7.30;102737.00;;;;5056289;28;20041;-68
2021/04/25 08:31:00;;;;;;;7.53;2.20;;;8.30;58.70;7.40;102736.00;;;;5054543;28;20601;-69
2021/04/25 08:33:26;;;;;;;7.72;2.20;;;8.30;57.20;7.40;102735.00;;;;5053343;28;20070;-69
2021/04/25 08:35:52;;;;;;;10.80;2.28;;;8.40;58.30;7.50;102746.00;;;;5070155;28;20113;-69
2021/04/25 08:38:20;;;;;;;7.90;2.10;;;8.40;58.50;7.60;102738.00;;;;5059441;28;20040;-69
2021/04/25 08:40:46;;;;;;;7.10;2.10;;;8.50;58.60;7.70;102738.00;;;;5057708;28;20492;-70
2021/04/25 08:43:14;;;;;;;6.10;1.70;;;8.60;57.90;7.70;102739.00;;;;5054330;28;20037;-70
2021/04/25 08:45:45;;;;;;;13.02;2.30;;;8.70;57.70;7.70;102737.00;;;;5059141;28;21220;-71
2021/04/25 08:48:14;;;;;;;11.27;2.25;;;8.70;57.70;7.70;102737.00;;;;5066827;28;20086;-69
2021/04/25 08:50:40;;;;;;;6.45;1.85;;;8.70;57.70;7.70;102747.00;;;;5085059;27;20044;-69
2021/04/25 08:53:07;;;;;;;8.88;2.03;;;8.60;57.30;7.50;102755.00;;;;5036558;28;20044;-69
2021/04/25 08:55:33;;;;;;;6.68;2.00;;;8.50;57.10;7.50;102738.00;;;;5017717;28;20032;-70
2021/04/25 08:57:59;;;;;;;7.90;1.70;;;8.50;54.90;7.60;102745.00;;;;5052755;28;20055;-70
2021/04/25 09:00:25;;;;;;;7.20;1.73;;;9.00;58.40;7.70;102743.00;;;;5054196;28;20041;-70
2021/04/25 09:02:53;;;;;;;10.25;2.03;;;8.70;56.00;7.80;102734.00;;;;5056547;28;20155;-70
2021/04/25 09:05:19;;;;;;;;;;;8.70;57.50;8.10;102747.00;;;;5050662;28;20040;-70
2021/04/25 09:08:06;;;;;;;6.95;1.70;;;9.00;56.20;8.20;102738.00;;;;5050328;28;19943;-70
2021/04/25 09:10:40;;;;;;;10.13;2.03;;;9.30;56.90;8.20;102738.00;;;;5039282;28;20753;-71
2021/04/25 09:13:32;;;;;;;6.50;1.50;;;9.10;56.60;8.30;102735.00;;;;5047744;28;20041;-70
2021/04/25 09:16:10;;;;;;;7.80;1.55;;;9.20;55.60;8.40;102742.00;;;;5036186;28;20486;-70
2021/04/25 09:18:36;;;;;;;;;;;9.30;55.50;8.30;102739.00;;;;5056344;28;20047;-70
2021/04/25 09:21:13;;;;;;;10.85;2.00;;;9.20;56.00;8.30;102745.00;;;;5053777;28;21031;-70
2021/04/25 09:23:40;;;;;;;7.47;1.85;;;9.30;56.20;8.30;102743.00;;;;5052183;28;20051;-70
2021/04/25 09:26:07;;;;;;;10.73;2.60;;;9.30;54.90;8.40;102738.00;;;;5055462;28;20037;-70
2021/04/25 09:28:34;;;;;;;;;;;9.30;56.40;8.50;102736.00;;;;5047206;28;20057;-70
2021/04/25 09:31:06;;;;;;;8.43;1.83;;;9.50;56.10;8.40;102740.00;;;;5035252;28;20498;-70
2021/04/25 09:33:57;;;;;;;10.82;2.35;;;9.30;54.30;8.30;102733.00;;;;5034758;28;20511;-70
2021/04/25 09:36:27;;;;;;;9.73;1.77;;;9.30;55.80;8.50;102726.00;;;;5051797;28;20052;-70
2021/04/25 09:39:08;;;;;;;13.32;2.40;;;9.40;56.30;8.70;102732.00;;;;5059715;28;20037;-70
2021/04/25 09:41:34;;;;;;;8.38;1.60;;;9.60;55.30;8.90;102734.00;;;;5050842;28;20097;-70
2021/04/25 09:44:02;;;;;;;9.73;1.83;;;9.70;56.00;9.00;102736.00;;;;5053510;28;20044;-69
2021/04/25 09:46:51;;;;;;;10.27;2.30;;;9.80;54.20;9.00;102728.00;;;;5057380;28;20040;-71
2021/04/25 09:49:44;;;;;;;10.15;1.92;;;9.90;54.80;9.00;102727.00;;;;5062730;28;20045;-69
2021/04/25 09:52:13;;;;;;;8.13;1.65;;;10.00;54.70;9.00;102721.00;;;;5036215;28;20051;-69
2021/04/25 09:54:39;;;;;;;7.53;2.10;;;9.70;55.20;9.10;102732.00;;;;5046756;28;20037;-69
2021/04/25 09:57:07;;;;;;;12.13;2.30;;;10.00;55.10;9.00;102728.00;;;;5058048;28;20154;-70
2021/04/25 09:59:50;;;;;;;12.55;1.90;;;9.90;51.60;8.70;102730.00;;;;5031676;28;20400;-70
2021/04/25 10:02:16;;;;;;;12.82;2.47;;;9.70;53.60;8.60;102737.00;;;;5057906;28;20041;-70
2021/04/25 10:04:42;;;;;;;8.73;1.70;;;9.60;54.80;8.60;102729.00;;;;5051585;28;20134;-69
2021/04/25 10:07:13;;;;;;;6.85;1.95;;;9.60;53.00;8.60;102736.00;;;;5056077;28;20051;-70
2021/04/25 10:09:38;;;;;;;10.88;2.60;;;9.60;55.30;8.60;102728.00;;;;5051428;28;20037;-69
2021/04/25 10:12:05;;;;;;;9.02;1.80;;;9.50;54.20;8.80;102725.00;;;;5034589;28;20586;-69
2021/04/25 10:14:33;;;;;;;9.93;2.08;;;9.70;54.90;8.90;102737.00;;;;5058741;28;20068;-69
2021/04/25 10:17:02;;;;;;;9.50;1.90;;;9.80;53.20;9.10;102732.00;;;;5038401;28;20070;-70
2021/04/25 10:19:29;;;;;;;8.38;1.85;;;9.90;54.90;9.10;102726.00;;;;5054130;28;20472;-71
2021/04/25 10:21:55;;;;;;;8.85;2.05;;;9.90;54.70;9.00;102715.00;;;;5031036;28;20132;-70
2021/04/25 10:24:22;;;;;;;6.88;1.48;;;10.00;53.10;9.20;102718.00;;;;5051209;28;20045;-71
2021/04/25 10:26:53;;;;;;;10.07;1.85;;;10.00;54.30;9.20;102722.00;;;;5052365;28;21394;-70
2021/04/25 10:29:29;;;;;;;7.88;2.05;;;10.10;54.10;9.30;102731.00;;;;5054739;28;20494;-71
2021/04/25 10:31:57;;;;;;;8.93;1.65;;;10.90;54.20;9.30;102730.00;;;;5038557;28;20566;-71
2021/04/25 10:34:24;;;;;;;10.63;1.75;;;10.20;54.70;9.20;102724.00;;;;5053211;28;20052;-71
2021/04/25 10:36:54;;;;;;;5.93;1.80;;;10.40;54.00;9.40;102735.00;;;;5052111;28;20572;-71
2021/04/25 10:39:55;;;;;;;6.13;2.08;;;10.40;52.00;9.60;102719.00;;;;5054173;28;20044;-70
2021/04/25 10:42:29;;;;;;;8.30;2.00;;;10.40;53.20;9.70;102721.00;;;;5050353;28;20041;-70
2021/04/25 10:44:58;;;;;;;6.43;1.70;;;10.60;53.60;9.90;102698.00;;;;5051362;28;20055;-70
2021/04/25 10:47:25;;;;;;;12.43;2.03;;;11.70;53.40;10.10;102699.00;;;;5036343;28;20475;-71
2021/04/25 10:49:54;;;;;;;7.45;2.08;;;10.90;52.20;10.40;102702.00;;;;5033381;28;20029;-70
2021/04/25 10:52:29;;;;;;;7.32;2.03;;;11.10;51.10;10.30;102702.00;;;;5052995;28;20490;-71
2021/04/25 10:55:14;;;;;;;11.50;1.80;;;11.10;52.60;10.50;102710.00;;;;5026236;28;20091;-70
2021/04/25 10:57:53;;;;;;;10.07;2.40;;;11.20;50.90;10.30;102697.00;;;;5054412;28;20044;-70
2021/04/25 11:00:34;;;;;;;5.13;1.75;;;11.10;51.20;10.40;102692.00;;;;5065469;28;20114;-70